createdAt,value
2023-02-15T00:02:34.180Z,93.76
2023-02-15T00:07:38.103Z,93.94
2023-02-15T00:12:43.054Z,94.21
2023-02-15T00:17:46.919Z,94.39
2023-02-15T00:22:50.675Z,94.25
2023-02-15T00:27:54.940Z,94.32
2023-02-15T00:32:58.696Z,94.08
2023-02-15T00:38:03.012Z,94.04
2023-02-15T00:43:07.752Z,94.54
2023-02-15T00:48:12.895Z,94.38
2023-02-15T00:53:16.998Z,94.29
2023-02-15T00:58:20.862Z,94.62
2023-02-15T01:03:24.698Z,94.82
2023-02-15T01:08:29.048Z,95.04
2023-02-15T01:13:33.584Z,95.23
2023-02-15T01:18:37.540Z,95.47
2023-02-15T01:23:42.813Z,95.16
2023-02-15T01:28:46.932Z,95.39
2023-02-15T01:33:50.715Z,95.21
2023-02-15T01:38:55.495Z,95.41
2023-02-15T01:44:01.477Z,95.41
2023-02-15T01:49:20.626Z,95.57
2023-02-15T01:54:37.262Z,95.47
2023-02-15T01:59:44.897Z,95.62
2023-02-15T02:04:50.975Z,95.77
2023-02-15T02:09:56.164Z,96.08
2023-02-15T02:15:02.117Z,96.64
2023-02-15T02:20:48.386Z,96.71
2023-02-15T02:26:25.646Z,96.68
2023-02-15T02:32:11.148Z,97.18
2023-02-15T02:37:40.809Z,96.92
2023-02-15T02:43:13.127Z,97.20
2023-02-15T02:48:21.771Z,97.28
2023-02-15T02:53:27.632Z,97.65
2023-02-15T02:59:00.036Z,97.67
2023-02-15T03:04:13.896Z,97.52
2023-02-15T03:09:25.559Z,98.19
2023-02-15T03:14:29.783Z,97.94
2023-02-15T03:19:35.954Z,97.96
2023-02-15T03:25:18.784Z,97.95
2023-02-15T03:30:30.152Z,98.07
2023-02-15T03:35:47.224Z,98.08
2023-02-15T03:41:10.639Z,98.19
2023-02-15T03:46:22.841Z,98.70
2023-02-15T03:51:39.263Z,98.67
2023-02-15T03:57:04.051Z,98.60
2023-02-15T04:02:22.551Z,98.85
2023-02-15T04:07:26.846Z,99.14
2023-02-15T04:12:30.627Z,99.03
2023-02-15T04:17:34.613Z,99.27
2023-02-15T04:22:56.974Z,99.50
2023-02-15T04:28:01.330Z,99.60
2023-02-15T04:33:05.288Z,99.86
2023-02-15T04:38:09.107Z,99.55
2023-02-15T04:43:12.895Z,99.76
2023-02-15T04:48:20.558Z,99.87
2023-02-15T04:53:24.276Z,99.93
2023-02-15T04:58:29.310Z,99.84
2023-02-15T05:03:33.450Z,99.98
2023-02-15T05:08:37.534Z,99.94
2023-02-15T05:13:41.171Z,99.86
2023-02-15T05:18:45.272Z,99.92
2023-02-15T05:23:49.063Z,99.90
2023-02-15T05:28:52.817Z,99.85
2023-02-15T05:33:56.629Z,99.96
2023-02-15T05:39:00.959Z,99.97
2023-02-15T05:44:04.809Z,100.00
2023-02-15T05:49:09.275Z,99.99
2023-02-15T05:54:15.988Z,100.00
2023-02-15T05:59:20.961Z,100.00
2023-02-15T06:04:24.848Z,100.00
2023-02-15T06:09:28.589Z,100.00
2023-02-15T06:14:35.555Z,100.00
2023-02-15T06:19:42.279Z,100.00
2023-02-15T06:24:46.076Z,100.00
2023-02-15T06:29:49.787Z,100.00
2023-02-15T06:34:53.665Z,100.00
2023-02-15T06:40:03.221Z,100.00
2023-02-15T06:45:10.913Z,100.00
2023-02-15T06:50:14.619Z,100.00
2023-02-15T06:55:18.576Z,100.00
2023-02-15T07:00:24.395Z,100.00
2023-02-15T07:05:33.064Z,100.00
2023-02-15T07:10:36.823Z,100.00
2023-02-15T07:15:40.609Z,100.00
2023-02-15T07:20:44.425Z,100.00
2023-02-15T07:25:48.178Z,100.00
2023-02-15T07:30:52.791Z,100.00
2023-02-15T07:36:02.552Z,100.00
2023-02-15T07:41:08.989Z,100.00
2023-02-15T07:46:15.148Z,100.00
2023-02-15T07:51:19.011Z,100.00
2023-02-15T07:56:22.646Z,100.00
2023-02-15T08:01:32.482Z,100.00
2023-02-15T08:06:38.692Z,100.00
2023-02-15T08:11:42.853Z,100.00
2023-02-15T08:16:51.711Z,100.00
2023-02-15T08:22:06.933Z,100.00
2023-02-15T08:27:12.531Z,100.00
2023-02-15T08:32:16.502Z,100.00
2023-02-15T08:37:20.449Z,100.00
2023-02-15T08:42:24.388Z,100.00
2023-02-15T08:47:28.197Z,100.00
2023-02-15T08:52:32.464Z,100.00
2023-02-15T08:57:36.214Z,100.00
2023-02-15T09:02:40.071Z,100.00
2023-02-15T09:07:43.866Z,100.00
2023-02-15T09:12:47.749Z,100.00
2023-02-15T09:17:51.663Z,100.00
2023-02-15T09:22:58.080Z,100.00
2023-02-15T09:28:02.791Z,100.00
2023-02-15T09:33:06.457Z,100.00
2023-02-15T09:38:13.205Z,100.00
2023-02-15T09:43:44.906Z,99.81
2023-02-15T09:48:55.950Z,99.73
2023-02-15T09:54:28.523Z,99.33
2023-02-15T09:59:35.819Z,99.35
2023-02-15T10:04:58.737Z,99.17
2023-02-15T10:10:28.650Z,99.00
2023-02-15T10:15:40.135Z,98.72
2023-02-15T10:21:04.692Z,98.29
2023-02-15T10:26:18.450Z,97.86
2023-02-15T10:31:32.358Z,97.98
2023-02-15T10:36:41.905Z,98.05
2023-02-15T10:42:08.646Z,97.42
2023-02-15T10:47:39.977Z,97.10
2023-02-15T10:53:28.012Z,97.02
2023-02-15T10:59:09.299Z,97.03
2023-02-15T11:04:40.427Z,96.67
2023-02-15T11:09:49.867Z,96.28
2023-02-15T11:14:58.068Z,95.94
2023-02-15T11:20:17.259Z,95.78
2023-02-15T11:25:26.027Z,95.77
2023-02-15T11:30:46.125Z,95.12
2023-02-15T11:36:00.791Z,95.11
2023-02-15T11:41:11.700Z,94.70
2023-02-15T11:46:16.294Z,95.26
2023-02-15T11:51:23.958Z,95.14
2023-02-15T11:56:27.996Z,93.89
2023-02-15T12:01:39.675Z,93.12
2023-02-15T12:06:50.097Z,93.17
2023-02-15T12:11:54.781Z,92.43
2023-02-15T12:16:58.771Z,92.25
2023-02-15T12:22:04.218Z,92.35
2023-02-15T12:27:17.045Z,92.26
2023-02-15T12:32:26.364Z,91.71
2023-02-15T12:37:33.990Z,91.17
2023-02-15T12:42:46.229Z,91.52
2023-02-15T12:48:17.181Z,91.03
2023-02-15T12:53:25.711Z,90.53
2023-02-15T12:58:31.774Z,89.98
2023-02-15T13:03:36.682Z,89.90
2023-02-15T13:08:53.264Z,89.67
2023-02-15T13:13:59.979Z,89.32
2023-02-15T13:19:35.072Z,89.52
2023-02-15T13:24:45.551Z,89.53
2023-02-15T13:30:00.847Z,89.41
2023-02-15T13:35:08.403Z,88.30
2023-02-15T13:40:17.396Z,88.65
2023-02-15T13:45:57.152Z,87.77
2023-02-15T13:51:14.932Z,88.24
2023-02-15T13:56:46.266Z,87.85
2023-02-15T14:02:00.402Z,87.67
2023-02-15T14:07:28.443Z,87.60
2023-02-15T14:13:12.239Z,87.44
2023-02-15T14:18:38.924Z,87.21
2023-02-15T14:24:31.496Z,86.96
2023-02-15T14:29:46.924Z,86.98
2023-02-15T14:34:54.736Z,86.44
2023-02-15T14:40:55.704Z,85.94
2023-02-15T14:46:33.261Z,85.94
2023-02-15T14:52:09.370Z,85.89
2023-02-15T14:57:14.394Z,85.69
2023-02-15T15:03:05.781Z,85.36
2023-02-15T15:08:24.309Z,85.43
2023-02-15T15:20:08.585Z,85.31
2023-02-15T15:25:32.633Z,85.21
2023-02-15T15:30:36.441Z,85.20
2023-02-15T15:35:58.776Z,85.24
2023-02-15T15:41:31.775Z,85.14
2023-02-15T15:47:30.248Z,85.22
2023-02-15T15:52:40.746Z,85.11
2023-02-15T15:57:47.957Z,85.42
2023-02-15T16:02:54.507Z,85.28
2023-02-15T16:07:59.224Z,85.54
2023-02-15T16:13:04.393Z,85.71
2023-02-15T16:18:16.853Z,85.81
2023-02-15T16:23:56.246Z,86.11
2023-02-15T16:29:01.278Z,86.39
2023-02-15T16:34:16.746Z,86.56
2023-02-15T16:39:22.973Z,86.78
2023-02-15T16:44:34.889Z,86.96
2023-02-15T16:49:40.901Z,87.29
2023-02-15T16:54:46.905Z,87.56
2023-02-15T16:59:54.181Z,87.89
2023-02-15T17:05:15.545Z,87.75
2023-02-15T17:10:40.732Z,87.82
2023-02-15T17:16:09.148Z,88.06
2023-02-15T17:21:19.836Z,88.05
2023-02-15T17:26:31.683Z,88.47
2023-02-15T17:31:38.944Z,88.67
2023-02-15T17:37:04.245Z,89.17
2023-02-15T17:42:09.903Z,88.92
2023-02-15T17:47:22.790Z,89.18
2023-02-15T17:52:29.708Z,89.37
2023-02-15T17:57:35.830Z,89.52
2023-02-15T18:03:02.057Z,89.68
2023-02-15T18:08:34.360Z,90.07
2023-02-15T18:13:39.664Z,90.28
2023-02-15T18:18:46.892Z,90.14
2023-02-15T18:23:54.630Z,90.53
2023-02-15T18:29:01.186Z,90.27
2023-02-15T18:34:47.957Z,90.67
2023-02-15T18:39:55.356Z,90.68
2023-02-15T18:45:38.865Z,90.57
2023-02-15T18:50:46.897Z,91.21
2023-02-15T18:55:53.622Z,91.15
2023-02-15T19:01:03.714Z,91.31
2023-02-15T19:06:18.576Z,91.58
2023-02-15T19:11:28.489Z,92.56
2023-02-15T19:16:38.812Z,92.44
2023-02-15T19:21:49.168Z,92.67
2023-02-15T19:26:56.561Z,92.84
2023-02-15T19:32:04.199Z,93.02
2023-02-15T19:37:27.959Z,92.93
2023-02-15T19:42:36.521Z,93.35
2023-02-15T19:47:42.877Z,93.13
2023-02-15T19:52:49.269Z,93.18
2023-02-15T19:57:58.283Z,93.29
2023-02-15T20:03:08.161Z,93.19
2023-02-15T20:08:23.609Z,93.47
2023-02-15T20:13:35.716Z,93.62
2023-02-15T20:18:49.346Z,93.61
2023-02-15T20:23:58.652Z,93.92
2023-02-15T20:29:04.402Z,93.85
2023-02-15T20:34:12.380Z,93.81
2023-02-15T20:39:21.517Z,93.88
2023-02-15T20:44:32.420Z,93.77
2023-02-15T20:49:39.440Z,93.77
2023-02-15T20:54:45.803Z,94.06
2023-02-15T20:59:52.681Z,94.36
2023-02-15T21:04:59.107Z,94.16
2023-02-15T21:10:07.068Z,94.31
2023-02-15T21:15:42.202Z,94.63
2023-02-15T21:20:50.783Z,94.69
2023-02-15T21:26:01.488Z,94.85
2023-02-15T21:31:13.751Z,94.29
2023-02-15T21:36:24.064Z,94.48
2023-02-15T21:41:48.515Z,94.69
2023-02-15T21:47:13.211Z,94.43
2023-02-15T21:52:23.330Z,94.66
2023-02-15T21:57:28.023Z,94.97
2023-02-15T22:02:34.602Z,95.05
2023-02-15T22:07:39.784Z,94.75
2023-02-15T22:12:44.260Z,94.99
2023-02-15T22:17:49.225Z,95.16
2023-02-15T22:22:54.660Z,95.02
2023-02-15T22:27:58.349Z,95.33
2023-02-15T22:33:02.178Z,95.87
2023-02-15T22:38:06.721Z,96.01
2023-02-15T22:43:23.079Z,95.66
2023-02-15T22:48:27.846Z,95.94
2023-02-15T22:53:31.863Z,96.09
2023-02-15T22:58:35.818Z,95.89
2023-02-15T23:03:41.420Z,95.74
2023-02-15T23:08:47.528Z,95.89
2023-02-15T23:13:51.705Z,96.69
2023-02-15T23:18:56.258Z,96.59
2023-02-15T23:24:15.420Z,96.15
2023-02-15T23:29:22.052Z,96.88
2023-02-15T23:34:32.039Z,97.17
2023-02-15T23:39:54.462Z,97.11
2023-02-15T23:44:58.851Z,96.79
2023-02-15T23:50:02.898Z,96.78
2023-02-15T23:55:06.945Z,96.61
